• Join FlightAware (Why Join?)
  • Login
  • US Flag 
09:52AM EDT


 

Airport Tracker/Info


-or-


 

Live Flight TrackerFlight Track Log ✈ OPT332 ✈ 17-Sep-2013 ✈ KOMA - KIXD

Flight Track Log - Related Links

Times and Time Zones

All times are in EDT time to prevent confusion due to time zone crossing. See the OPT332 flight status page for this flight to view local times or setup timezone preferences in your user account.

Time Position Orientation Groundspeed Altitude Reporting Facility
EDT Latitude Longitude Course Direction KTS MPH feet Rate Location/Type
10:02PM 41.2685 -95.8666 180° South 170 196 4,500  Level FlightAware ADS-B
10:03PM 41.2584 -95.8493 128° Southeast 184 212 5,300 2,400 Climbing FlightAware ADS-B
10:03PM 41.2536 -95.8436 138° Southeast 198 228 5,600 2,640 Climbing FlightAware ADS-B
10:03PM 41.2370 -95.8250 140° Southeast 225 259 6,600 2,640 Climbing FlightAware ADS-B
10:03PM 41.2345 -95.8221 139° Southeast 228 262 6,700 3,000 Climbing FlightAware ADS-B
10:05PM 41.1684 -95.7415 137° Southeast 279 321 10,600 3,060 Climbing FlightAware ADS-B
10:05PM 41.1569 -95.7264 135° Southeast 283 326 11,200 3,120 Climbing FlightAware ADS-B
10:05PM 41.1518 -95.7211 142° Southeast 283 326 11,500 3,000 Climbing FlightAware ADS-B
10:05PM 41.1464 -95.7173 152° Southeast 282 325 11,700 2,700 Climbing FlightAware ADS-B
10:05PM 41.1389 -95.7142 163° South 280 322 12,000 3,240 Climbing FlightAware ADS-B
10:05PM 41.1183 -95.7141 180° South 263 303 12,900 2,580 Climbing FlightAware ADS-B
10:07PM 41.0092 -95.6995 174° South 289 333 16,400 1,980 Climbing FlightAware ADS-B
10:07PM 40.9641 -95.6865 168° South 295 339 16,900 240 Climbing FlightAware ADS-B
10:09PM 40.8249 -95.6541 170° South 343 395 17,000  Climbing FlightAware ADS-B
10:09PM 40.7740 -95.6418 170° South 349 402 17,000  Level FlightAware ADS-B
10:10PM 40.7253 -95.6301 170° South 346 398 17,000  Level FlightAware ADS-B
10:11PM 40.6163 -95.6039 170° South 341 392 17,000  Level FlightAware ADS-B
10:12PM 40.5668 -95.5921 170° South 336 387 17,000  Level FlightAware ADS-B
10:13PM 40.4256 -95.5585 170° South 332 382 17,000  Level FlightAware ADS-B
10:14PM 40.3738 -95.5462 170° South 331 381 17,000  Level FlightAware ADS-B
10:14PM 40.3276 -95.5353 170° South 330 380 17,000  Level FlightAware ADS-B
10:15PM 40.2248 -95.5108 170° South 330 380 17,000 -120 Level FlightAware ADS-B
10:16PM 40.1879 -95.5022 170° South 331 381 16,900 -120 Descending FlightAware ADS-B
10:16PM 40.1416 -95.4912 170° South 330 380 16,900 -900 Level FlightAware ADS-B
10:18PM 40.0318 -95.4653 170° South 300 345 15,400 -1,260 Descending FlightAware ADS-B
10:18PM 39.9931 -95.4563 170° South 288 331 14,700 -1,500 Descending FlightAware ADS-B
10:19PM 39.9527 -95.4468 170° South 294 338 13,900 -1,560 Descending FlightAware ADS-B
10:20PM 39.8510 -95.4192 168° South 316 364 12,000 -1,500 Descending FlightAware ADS-B
10:20PM 39.8470 -95.4164 152° Southeast 316 364 12,000 -600 Level FlightAware ADS-B
10:20PM 39.8369 -95.4081 148° Southeast 319 367 11,900 -600 Descending FlightAware ADS-B
10:20PM 39.8331 -95.4044 143° Southeast 320 368 11,900  Level FlightAware ADS-B
10:21PM 39.7981 -95.3668 140° Southeast 320 368 11,900  Level FlightAware ADS-B
10:22PM 39.7028 -95.2678 141° Southeast 321 369 11,900  Level FlightAware ADS-B
10:22PM 39.6696 -95.2347 142° Southeast 320 368 11,900  Level FlightAware ADS-B
10:22PM 39.6636 -95.2311 155° Southeast 316 364 11,900  Level FlightAware ADS-B
10:22PM 39.6582 -95.2288 162° South 315 362 11,900 60 Level FlightAware ADS-B
10:24PM 39.5667 -95.1833 162° South 322 371 12,000 -240 Climbing Kansas City TRACON
10:25PM 39.4833 -95.1500 163° South 326 375 11,500 -1,020 Descending Kansas City TRACON
10:26PM 39.4000 -95.1167 163° South 307 353 9,900 -1,560 Descending Kansas City TRACON
10:27PM 39.3167 -95.0833 163° South 291 335 8,300 -1,680 Descending Kansas City TRACON
10:28PM 39.2500 -95.0500 159° South 271 312 6,600 -1,740 Descending Kansas City TRACON
10:29PM 39.1833 -95.0167 159° South 262 302 5,000 -1,380 Descending Kansas City TRACON
10:30PM 39.1333 -94.9833 153° Southeast 226 260 4,000 -540 Descending Kansas City TRACON
10:31PM 39.0833 -94.9667 165° South 177 204 4,000 -60 Level Kansas City TRACON
10:32PM 39.0333 -94.9500 165° South 167 192 3,900 -540 Descending Kansas City TRACON
10:33PM 38.9833 -94.9167 153° Southeast 172 198 3,000 -480 Descending Kansas City TRACON
10:34PM 38.9333 -94.9000 165° South 153 176 2,900 -120 Descending Kansas City TRACON
10:35PM 38.9000 -94.8833 159° South 99 114 2,800 -480 Descending Kansas City TRACON
10:36PM 38.8833 -94.8833 180° South 90 104 2,000 -660 Descending Kansas City TRACON
10:37PM 38.8558 -94.8922 194° South 97 112 1,500 -420 Descending Kansas City Center
10:38PM 38.8272 -94.8908 178° South 100 115 1,200 -300 Descending Kansas City Center